createdAt,value
2018-11-23T00:00:38.200Z,6.70
2018-11-23T00:05:41.348Z,5.90
2018-11-23T00:10:45.190Z,6.70
2018-11-23T00:15:48.338Z,6.27
2018-11-23T00:20:51.509Z,5.60
2018-11-23T00:25:55.117Z,7.10
2018-11-23T00:30:58.602Z,6.90
2018-11-23T00:36:01.750Z,7.70
2018-11-23T00:41:05.475Z,7.47
2018-11-23T00:46:08.817Z,6.20
2018-11-23T00:51:12.052Z,6.63
2018-11-23T00:56:15.206Z,6.17
2018-11-23T01:01:18.379Z,6.47
2018-11-23T01:06:21.564Z,6.40
2018-11-23T01:11:24.733Z,6.67
2018-11-23T01:16:27.921Z,7.83
2018-11-23T01:21:31.091Z,8.37
2018-11-23T01:26:34.259Z,8.97
2018-11-23T01:31:37.476Z,7.73
2018-11-23T01:36:40.703Z,8.17
2018-11-23T01:41:43.895Z,8.10
2018-11-23T01:46:47.267Z,7.77
2018-11-23T01:51:50.481Z,6.50
2018-11-23T01:56:53.887Z,6.87
2018-11-23T02:01:57.450Z,8.77
2018-11-23T02:07:00.618Z,9.00
2018-11-23T02:12:03.954Z,8.60
2018-11-23T02:17:07.140Z,6.30
2018-11-23T02:22:10.325Z,7.20
2018-11-23T02:27:13.510Z,8.57
2018-11-23T02:32:16.974Z,9.50
2018-11-23T02:37:20.179Z,8.47
2018-11-23T02:42:23.407Z,8.80
2018-11-23T02:47:26.581Z,8.97
2018-11-23T02:52:29.835Z,9.33
2018-11-23T02:57:33.090Z,8.47
2018-11-23T03:02:36.296Z,10.47
2018-11-23T03:07:39.720Z,8.70
2018-11-23T03:12:43.836Z,8.20
2018-11-23T03:17:47.519Z,8.00
2018-11-23T03:22:50.824Z,9.10
2018-11-23T03:27:54.476Z,9.63
2018-11-23T03:32:57.695Z,8.60
2018-11-23T03:38:00.882Z,10.30
2018-11-23T03:43:04.135Z,8.90
2018-11-23T03:48:07.377Z,8.47
2018-11-23T03:53:10.610Z,9.57
2018-11-23T03:58:14.075Z,9.00
2018-11-23T04:03:17.283Z,8.63
2018-11-23T04:08:20.523Z,8.33
2018-11-23T04:13:23.713Z,8.83
2018-11-23T04:18:26.927Z,8.63
2018-11-23T04:23:31.573Z,9.20
2018-11-23T04:28:34.724Z,8.97
2018-11-23T04:33:37.861Z,9.53
2018-11-23T04:38:41.065Z,11.53
2018-11-23T04:43:44.230Z,9.13
2018-11-23T04:48:47.381Z,9.60
2018-11-23T04:53:50.558Z,9.80
2018-11-23T04:58:53.828Z,7.60
2018-11-23T05:03:57.162Z,7.50
2018-11-23T05:09:00.362Z,8.17
2018-11-23T05:14:03.719Z,8.60
2018-11-23T05:19:07.062Z,8.20
2018-11-23T05:24:10.626Z,9.40
2018-11-23T05:29:13.889Z,7.67
2018-11-23T05:34:17.402Z,8.30
2018-11-23T05:39:20.613Z,9.40
2018-11-23T05:44:24.110Z,9.30
2018-11-23T05:49:27.340Z,9.20
2018-11-23T05:54:30.601Z,9.10
2018-11-23T05:59:34.001Z,9.73
2018-11-23T06:04:37.181Z,9.43
2018-11-23T06:09:40.515Z,10.17
2018-11-23T06:14:43.730Z,10.50
2018-11-23T06:19:47.424Z,11.57
2018-11-23T06:24:50.628Z,11.03
2018-11-23T06:29:53.805Z,10.20
2018-11-23T06:34:57.030Z,9.37
2018-11-23T06:40:00.282Z,8.90
2018-11-23T06:45:03.546Z,9.50
2018-11-23T06:50:10.064Z,10.43
2018-11-23T06:55:13.399Z,10.20
2018-11-23T07:00:17.043Z,10.60
2018-11-23T07:05:20.266Z,11.40
2018-11-23T07:10:23.517Z,9.97
2018-11-23T07:15:26.814Z,10.77
2018-11-23T07:20:30.778Z,9.17
2018-11-23T07:25:34.015Z,8.87
2018-11-23T07:30:37.360Z,9.23
2018-11-23T07:35:40.810Z,10.50
2018-11-23T07:40:57.162Z,9.67
2018-11-23T07:46:00.482Z,9.47
2018-11-23T07:51:03.800Z,9.33
2018-11-23T07:56:07.058Z,9.63
2018-11-23T08:01:10.340Z,9.20
2018-11-23T08:06:13.623Z,8.67
2018-11-23T08:11:16.947Z,8.03
2018-11-23T08:16:20.243Z,9.47
2018-11-23T08:21:23.595Z,12.40
2018-11-23T08:26:26.826Z,10.03
2018-11-23T08:31:30.085Z,9.37
2018-11-23T08:36:33.357Z,9.70
2018-11-23T08:41:36.822Z,10.17
2018-11-23T08:46:40.077Z,9.07
2018-11-23T08:51:43.497Z,9.10
2018-11-23T08:56:46.739Z,7.90
2018-11-23T09:01:49.912Z,8.50
2018-11-23T09:06:53.169Z,8.83
2018-11-23T09:11:56.434Z,8.93
2018-11-23T09:16:59.673Z,9.43
2018-11-23T09:22:03.132Z,9.63
2018-11-23T09:27:06.415Z,10.70
2018-11-23T09:32:09.682Z,9.80
2018-11-23T09:37:12.985Z,9.33
2018-11-23T09:42:16.207Z,8.63
2018-11-23T09:47:19.611Z,9.53
2018-11-23T09:52:22.921Z,9.10
2018-11-23T09:57:26.188Z,8.20
2018-11-23T10:02:29.606Z,9.87
2018-11-23T10:07:32.839Z,12.43
2018-11-23T10:12:36.745Z,10.13
2018-11-23T10:17:40.034Z,10.40
2018-11-23T10:22:43.687Z,9.23
2018-11-23T10:27:47.180Z,10.33
2018-11-23T10:32:51.485Z,9.97
2018-11-23T10:37:56.157Z,10.93
2018-11-23T10:42:59.425Z,10.07
2018-11-23T10:48:04.631Z,8.23
2018-11-23T10:53:08.045Z,8.97
2018-11-23T10:58:11.569Z,9.70
2018-11-23T11:03:33.459Z,10.93
2018-11-23T11:08:36.885Z,10.80
2018-11-23T11:13:40.320Z,12.57
2018-11-23T11:18:43.533Z,11.80
2018-11-23T11:23:46.747Z,10.37
2018-11-23T11:28:50.019Z,10.10
2018-11-23T11:33:53.847Z,9.57
2018-11-23T11:38:57.224Z,9.50
2018-11-23T11:44:00.560Z,9.97
2018-11-23T11:49:04.025Z,9.60
2018-11-23T11:54:07.292Z,8.43
2018-11-23T11:59:10.609Z,10.17
2018-11-23T12:04:13.860Z,10.40
2018-11-23T12:09:17.137Z,8.77
2018-11-23T12:14:20.420Z,8.13
2018-11-23T12:19:23.690Z,8.90
2018-11-23T12:24:26.969Z,7.80
2018-11-23T12:29:30.189Z,8.03
2018-11-23T12:34:33.904Z,8.40
2018-11-23T12:39:37.316Z,7.87
2018-11-23T12:44:40.559Z,8.73
2018-11-23T12:49:43.917Z,7.47
2018-11-23T12:54:47.230Z,7.40
2018-11-23T12:59:50.504Z,7.40
2018-11-23T13:04:53.699Z,7.40
2018-11-23T13:09:57.161Z,6.67
2018-11-23T13:15:00.407Z,9.00
2018-11-23T13:20:04.339Z,7.50
2018-11-23T13:25:09.840Z,7.60
2018-11-23T13:30:16.476Z,6.83
2018-11-23T13:35:20.385Z,7.03
2018-11-23T13:40:24.844Z,7.00
2018-11-23T13:45:30.568Z,7.60
2018-11-23T13:50:33.872Z,6.43
2018-11-23T13:55:37.485Z,7.17
2018-11-23T14:00:40.758Z,7.57
2018-11-23T14:05:44.009Z,7.90
2018-11-23T14:10:47.420Z,9.27
2018-11-23T14:15:50.932Z,9.30
2018-11-23T14:20:54.170Z,8.30
2018-11-23T14:25:57.430Z,7.57
2018-11-23T14:31:00.831Z,8.00
2018-11-23T14:36:04.087Z,7.67
2018-11-23T14:41:07.366Z,7.37
2018-11-23T14:46:10.975Z,8.17
2018-11-23T14:51:14.386Z,7.77
2018-11-23T14:56:18.034Z,8.00
2018-11-23T15:01:22.002Z,9.80
2018-11-23T15:06:25.238Z,9.67
2018-11-23T15:11:28.583Z,8.73
2018-11-23T15:16:31.885Z,8.00
2018-11-23T15:21:35.396Z,7.17
2018-11-23T15:26:38.711Z,9.00
2018-11-23T15:31:42.067Z,8.30
2018-11-23T15:36:45.414Z,8.97
2018-11-23T15:41:48.975Z,8.07
2018-11-23T15:46:52.303Z,9.50
2018-11-23T15:51:55.564Z,8.20
2018-11-23T15:56:58.833Z,8.80
2018-11-23T16:02:02.098Z,9.73
2018-11-23T16:07:05.712Z,8.10
2018-11-23T16:12:08.964Z,8.20
2018-11-23T16:17:12.213Z,8.30
2018-11-23T16:22:15.745Z,9.30
2018-11-23T16:27:20.358Z,8.30
2018-11-23T16:32:23.914Z,9.60
2018-11-23T16:37:27.167Z,8.80
2018-11-23T16:42:30.627Z,8.93
2018-11-23T16:47:33.871Z,9.30
2018-11-23T16:52:37.241Z,9.47
2018-11-23T16:57:41.878Z,10.30
2018-11-23T17:02:45.312Z,9.40
2018-11-23T17:07:48.635Z,11.43
2018-11-23T17:12:52.055Z,10.27
2018-11-23T17:17:55.363Z,10.53
2018-11-23T17:23:00.128Z,10.60
2018-11-23T17:28:04.910Z,9.40
2018-11-23T17:33:08.609Z,9.93
2018-11-23T17:38:11.815Z,10.80
2018-11-23T17:43:15.316Z,10.70
2018-11-23T17:48:18.591Z,11.10
2018-11-23T17:53:21.943Z,11.20
2018-11-23T17:58:25.166Z,10.50
2018-11-23T18:03:28.442Z,9.37
2018-11-23T18:08:32.327Z,9.90
2018-11-23T18:13:35.348Z,9.83
2018-11-23T18:18:38.690Z,10.40
2018-11-23T18:23:41.993Z,10.53
2018-11-23T18:28:45.302Z,11.07
2018-11-23T18:33:48.552Z,11.70
2018-11-23T18:38:51.788Z,10.70
2018-11-23T18:43:55.009Z,10.40
2018-11-23T18:48:59.166Z,10.20
2018-11-23T18:54:02.473Z,10.17
2018-11-23T18:59:05.850Z,10.40
2018-11-23T19:04:09.105Z,10.40
2018-11-23T19:09:12.395Z,9.20
2018-11-23T19:14:15.681Z,9.13
2018-11-23T19:19:18.987Z,9.80
2018-11-23T19:24:22.277Z,10.53
2018-11-23T19:29:25.944Z,10.30
2018-11-23T19:34:29.553Z,9.43
2018-11-23T19:39:33.030Z,9.03
2018-11-23T19:44:36.369Z,9.90
2018-11-23T19:49:39.666Z,8.20
2018-11-23T19:54:42.992Z,9.73
2018-11-23T19:59:46.315Z,10.10
2018-11-23T20:04:49.620Z,9.10
2018-11-23T20:09:53.033Z,8.97
2018-11-23T20:14:57.275Z,8.70
2018-11-23T20:20:00.720Z,9.53
2018-11-23T20:25:05.474Z,10.20
2018-11-23T20:30:11.325Z,10.23
2018-11-23T20:35:22.205Z,9.57
2018-11-23T20:40:25.586Z,11.63
2018-11-23T20:45:29.060Z,10.47
2018-11-23T20:50:32.408Z,11.37
2018-11-23T20:55:35.783Z,10.13
2018-11-23T21:00:39.100Z,8.60
2018-11-23T21:05:42.394Z,10.97
2018-11-23T21:10:45.678Z,10.03
2018-11-23T21:15:48.976Z,10.07
2018-11-23T21:20:52.258Z,10.87
2018-11-23T21:25:55.623Z,9.50
2018-11-23T21:30:58.935Z,10.33
2018-11-23T21:36:02.176Z,9.60
2018-11-23T21:41:05.892Z,8.97
2018-11-23T21:46:09.266Z,8.30
2018-11-23T21:51:12.966Z,9.13
2018-11-23T21:56:16.405Z,10.40
2018-11-23T22:01:19.827Z,10.20
2018-11-23T22:06:23.107Z,10.80
2018-11-23T22:11:26.355Z,10.20
2018-11-23T22:16:29.763Z,10.40
2018-11-23T22:21:33.079Z,11.20
2018-11-23T22:26:36.402Z,10.20
2018-11-23T22:31:39.648Z,10.47
2018-11-23T22:36:42.892Z,9.83
2018-11-23T22:41:46.194Z,10.23
2018-11-23T22:46:49.471Z,9.70
2018-11-23T22:51:52.776Z,11.20
2018-11-23T22:56:56.115Z,9.00
2018-11-23T23:01:59.464Z,9.57
2018-11-23T23:07:02.715Z,10.83
2018-11-23T23:12:06.418Z,10.07
2018-11-23T23:17:09.702Z,10.27
2018-11-23T23:22:12.994Z,10.67
2018-11-23T23:27:16.322Z,8.23
2018-11-23T23:32:19.673Z,9.00
2018-11-23T23:37:22.907Z,9.57
2018-11-23T23:42:26.113Z,8.40
2018-11-23T23:47:29.362Z,8.27
2018-11-23T23:52:32.663Z,7.73
2018-11-23T23:57:35.855Z,9.30
